createdAt,value
2023-02-16T00:01:52.189Z,17.17
2023-02-16T00:04:20.519Z,17.20
2023-02-16T00:06:48.237Z,17.01
2023-02-16T00:09:15.409Z,17.04
2023-02-16T00:12:01.187Z,17.19
2023-02-16T00:14:28.273Z,16.73
2023-02-16T00:16:59.467Z,16.64
2023-02-16T00:19:33.625Z,16.61
2023-02-16T00:22:01.091Z,16.69
2023-02-16T00:24:29.481Z,16.60
2023-02-16T00:26:57.647Z,16.55
2023-02-16T00:29:30.516Z,16.50
2023-02-16T00:31:58.819Z,16.69
2023-02-16T00:34:43.364Z,16.62
2023-02-16T00:37:13.389Z,16.66
2023-02-16T00:39:42.229Z,16.56
2023-02-16T00:42:11.697Z,16.55
2023-02-16T00:44:47.942Z,16.49
2023-02-16T00:47:23.690Z,16.11
2023-02-16T00:49:53.130Z,15.86
2023-02-16T00:52:31.676Z,15.89
2023-02-16T00:54:59.982Z,15.83
2023-02-16T00:57:30.838Z,15.87
2023-02-16T01:00:06.498Z,15.96
2023-02-16T01:02:33.138Z,16.25
2023-02-16T01:04:59.787Z,16.14
2023-02-16T01:07:45.436Z,16.15
2023-02-16T01:10:30.724Z,15.93
2023-02-16T01:12:57.369Z,16.07
2023-02-16T01:15:25.940Z,16.03
2023-02-16T01:17:52.893Z,15.93
2023-02-16T01:20:25.104Z,16.05
2023-02-16T01:22:51.827Z,16.00
2023-02-16T01:25:18.391Z,16.38
2023-02-16T01:27:47.610Z,16.19
2023-02-16T01:30:17.232Z,16.15
2023-02-16T01:32:51.175Z,16.13
2023-02-16T01:35:34.238Z,16.23
2023-02-16T01:38:00.837Z,16.14
2023-02-16T01:40:40.525Z,16.17
2023-02-16T01:43:21.985Z,16.02
2023-02-16T01:45:56.965Z,16.14
2023-02-16T01:48:31.617Z,16.23
2023-02-16T01:51:06.791Z,16.39
2023-02-16T01:53:41.233Z,16.44
2023-02-16T01:56:19.143Z,16.01
2023-02-16T01:58:55.483Z,16.69
2023-02-16T02:01:36.401Z,16.75
2023-02-16T02:04:29.774Z,16.29
2023-02-16T02:06:56.537Z,16.42
2023-02-16T02:09:30.766Z,16.28
2023-02-16T02:12:06.233Z,15.93
2023-02-16T02:14:35.444Z,16.16
2023-02-16T02:17:13.275Z,16.12
2023-02-16T02:20:04.663Z,16.03
2023-02-16T02:22:50.050Z,16.02
2023-02-16T02:25:38.752Z,15.45
2023-02-16T02:28:11.279Z,15.75
2023-02-16T02:30:56.308Z,15.40
2023-02-16T02:33:32.574Z,15.53
2023-02-16T02:36:11.109Z,15.78
2023-02-16T02:38:56.531Z,15.76
2023-02-16T02:41:57.490Z,15.05
2023-02-16T02:44:29.014Z,15.23
2023-02-16T02:46:56.089Z,14.78
2023-02-16T02:49:23.229Z,15.41
2023-02-16T02:51:51.053Z,15.26
2023-02-16T02:54:59.927Z,15.30
2023-02-16T02:57:58.076Z,15.30
2023-02-16T03:00:41.467Z,15.52
2023-02-16T03:03:20.791Z,15.63
2023-02-16T03:05:58.378Z,15.52
2023-02-16T03:08:28.916Z,15.81
2023-02-16T03:11:23.551Z,15.79
2023-02-16T03:14:07.127Z,15.77
2023-02-16T03:16:47.043Z,15.66
2023-02-16T03:19:36.884Z,15.59
2023-02-16T03:22:23.698Z,15.25
2023-02-16T03:25:08.856Z,14.79
2023-02-16T03:28:01.195Z,15.58
2023-02-16T03:30:28.935Z,15.76
2023-02-16T03:32:55.543Z,15.39
2023-02-16T03:35:22.428Z,14.89
2023-02-16T03:37:49.079Z,15.25
2023-02-16T03:40:29.626Z,15.61
2023-02-16T03:43:02.746Z,15.61
2023-02-16T03:45:30.392Z,15.60
2023-02-16T03:47:57.134Z,15.17
2023-02-16T03:50:26.337Z,15.65
2023-02-16T03:53:06.431Z,15.79
2023-02-16T03:55:37.816Z,15.60
2023-02-16T03:58:06.007Z,15.38
2023-02-16T04:00:33.631Z,15.41
2023-02-16T04:03:00.484Z,15.23
2023-02-16T04:05:27.326Z,15.19
2023-02-16T04:07:54.149Z,15.41
2023-02-16T04:10:23.533Z,15.52
2023-02-16T04:12:50.555Z,15.58
2023-02-16T04:15:21.160Z,15.54
2023-02-16T04:17:48.564Z,15.56
2023-02-16T04:20:20.439Z,15.63
2023-02-16T04:22:49.968Z,15.81
2023-02-16T04:25:18.732Z,16.06
2023-02-16T04:27:46.054Z,15.85
2023-02-16T04:30:15.364Z,15.78
2023-02-16T04:32:42.001Z,15.59
2023-02-16T04:35:09.464Z,15.57
2023-02-16T04:37:36.206Z,15.30
2023-02-16T04:40:03.480Z,15.05
2023-02-16T04:42:30.029Z,14.71
2023-02-16T04:44:56.684Z,14.59
2023-02-16T04:47:25.769Z,14.75
2023-02-16T04:49:53.441Z,14.24
2023-02-16T04:52:20.543Z,13.97
2023-02-16T04:54:47.138Z,13.82
2023-02-16T04:57:13.874Z,13.94
2023-02-16T04:59:40.549Z,13.99
2023-02-16T05:02:07.393Z,13.95
2023-02-16T05:04:34.550Z,14.09
2023-02-16T05:07:01.224Z,14.16
2023-02-16T05:09:27.853Z,14.44
2023-02-16T05:12:12.965Z,14.50
2023-02-16T05:14:42.657Z,14.11
2023-02-16T05:17:16.327Z,14.00
2023-02-16T05:19:45.362Z,13.83
2023-02-16T05:22:12.420Z,13.73
2023-02-16T05:24:39.682Z,14.10
2023-02-16T05:27:09.593Z,14.34
2023-02-16T05:29:36.184Z,14.44
2023-02-16T05:32:04.724Z,14.00
2023-02-16T05:34:31.897Z,14.03
2023-02-16T05:36:58.703Z,14.27
2023-02-16T05:39:25.318Z,14.34
2023-02-16T05:41:51.958Z,14.34
2023-02-16T05:44:18.631Z,14.43
2023-02-16T05:46:46.546Z,14.45
2023-02-16T05:49:14.591Z,14.76
2023-02-16T05:51:41.383Z,15.19
2023-02-16T05:54:10.639Z,15.09
2023-02-16T05:56:37.214Z,14.47
2023-02-16T05:59:03.854Z,14.60
2023-02-16T06:01:30.409Z,14.56
2023-02-16T06:03:57.173Z,14.62
2023-02-16T06:06:23.795Z,14.44
2023-02-16T06:08:50.429Z,14.42
2023-02-16T06:11:35.702Z,14.24
2023-02-16T06:14:10.833Z,14.51
2023-02-16T06:16:39.670Z,14.53
2023-02-16T06:19:06.733Z,14.51
2023-02-16T06:21:33.850Z,14.84
2023-02-16T06:24:00.570Z,15.01
2023-02-16T06:26:27.684Z,15.14
2023-02-16T06:28:55.408Z,15.18
2023-02-16T06:31:22.568Z,15.03
2023-02-16T06:33:49.436Z,15.08
2023-02-16T06:36:16.769Z,15.07
2023-02-16T06:38:44.096Z,15.14
2023-02-16T06:41:11.236Z,15.13
2023-02-16T06:43:37.925Z,15.38
2023-02-16T06:46:04.651Z,15.23
2023-02-16T06:48:31.139Z,15.21
2023-02-16T06:50:57.765Z,15.21
2023-02-16T06:53:25.382Z,15.42
2023-02-16T06:55:52.343Z,15.57
2023-02-16T06:58:19.108Z,15.54
2023-02-16T07:00:45.808Z,15.53
2023-02-16T07:03:12.526Z,15.55
2023-02-16T07:05:39.193Z,15.30
2023-02-16T07:08:05.948Z,15.47
2023-02-16T07:10:43.853Z,15.64
2023-02-16T07:13:15.862Z,15.84
2023-02-16T07:15:43.125Z,15.65
2023-02-16T07:18:13.207Z,15.39
2023-02-16T07:20:39.721Z,15.36
2023-02-16T07:23:06.655Z,15.23
2023-02-16T07:25:35.297Z,15.33
2023-02-16T07:28:02.689Z,15.48
2023-02-16T07:30:29.315Z,15.44
2023-02-16T07:32:55.992Z,15.44
2023-02-16T07:35:22.762Z,15.49
2023-02-16T07:37:49.625Z,15.34
2023-02-16T07:40:16.503Z,15.49
2023-02-16T07:42:43.037Z,15.52
2023-02-16T07:45:10.079Z,15.67
2023-02-16T07:47:36.726Z,15.60
2023-02-16T07:50:03.615Z,15.51
2023-02-16T07:52:31.301Z,15.58
2023-02-16T07:54:59.076Z,15.45
2023-02-16T07:57:29.317Z,15.37
2023-02-16T07:59:56.156Z,15.55
2023-02-16T08:02:23.830Z,16.18
2023-02-16T08:04:52.855Z,15.98
2023-02-16T08:07:19.990Z,16.04
2023-02-16T08:09:46.838Z,16.11
2023-02-16T08:12:15.556Z,15.92
2023-02-16T08:14:42.878Z,15.99
2023-02-16T08:17:10.203Z,15.86
2023-02-16T08:19:40.583Z,15.92
2023-02-16T08:22:08.760Z,16.27
2023-02-16T08:24:35.790Z,16.51
2023-02-16T08:27:04.450Z,16.66
2023-02-16T08:29:33.175Z,16.68
2023-02-16T08:32:01.317Z,16.96
2023-02-16T08:34:27.964Z,16.82
2023-02-16T08:36:56.744Z,16.80
2023-02-16T08:39:29.849Z,16.72
2023-02-16T08:41:56.818Z,16.55
2023-02-16T08:44:25.192Z,16.75
2023-02-16T08:46:54.029Z,16.87
2023-02-16T08:49:22.649Z,17.11
2023-02-16T08:51:55.128Z,16.97
2023-02-16T08:54:28.985Z,17.21
2023-02-16T08:56:57.169Z,16.97
2023-02-16T08:59:27.262Z,16.90
2023-02-16T09:01:55.183Z,16.83
2023-02-16T09:04:21.812Z,17.13
2023-02-16T09:06:48.445Z,17.28
2023-02-16T09:09:15.767Z,17.22
2023-02-16T09:11:42.532Z,17.25
2023-02-16T09:14:10.315Z,17.44
2023-02-16T09:16:39.893Z,17.61
2023-02-16T09:19:08.460Z,17.70
2023-02-16T09:21:34.982Z,17.66
2023-02-16T09:24:04.189Z,17.72
2023-02-16T09:26:33.194Z,17.87
2023-02-16T09:29:01.975Z,17.83
2023-02-16T09:31:30.855Z,17.66
2023-02-16T09:34:02.642Z,17.57
2023-02-16T09:36:29.824Z,17.50
2023-02-16T09:38:57.043Z,17.85
2023-02-16T09:41:34.063Z,18.05
2023-02-16T09:44:18.949Z,17.92
2023-02-16T09:46:47.676Z,18.12
2023-02-16T09:49:28.316Z,18.29
2023-02-16T09:52:08.909Z,18.34
2023-02-16T09:54:53.596Z,18.25
2023-02-16T09:57:35.834Z,18.21
2023-02-16T10:00:33.410Z,17.81
2023-02-16T10:03:38.253Z,17.91
2023-02-16T10:06:40.451Z,17.68
2023-02-16T10:09:16.230Z,17.70
2023-02-16T10:11:49.810Z,17.76
2023-02-16T10:14:23.039Z,17.77
2023-02-16T10:16:52.566Z,17.72
2023-02-16T10:19:23.826Z,17.83
2023-02-16T10:21:55.056Z,18.10
2023-02-16T10:24:21.792Z,17.84
2023-02-16T10:27:07.424Z,17.69
2023-02-16T10:29:34.164Z,17.62
2023-02-16T10:32:24.945Z,17.72
2023-02-16T10:34:56.072Z,17.56
2023-02-16T10:37:51.848Z,17.64
2023-02-16T10:40:33.048Z,17.67
2023-02-16T10:43:18.108Z,17.80
2023-02-16T10:45:59.428Z,17.93
2023-02-16T10:48:26.198Z,17.95
2023-02-16T10:51:09.095Z,17.96
2023-02-16T10:53:38.608Z,18.36
2023-02-16T10:56:31.628Z,18.33
2023-02-16T10:59:00.714Z,18.30
2023-02-16T11:01:40.079Z,18.46
2023-02-16T11:04:06.801Z,18.39
2023-02-16T11:06:36.494Z,18.47
2023-02-16T11:09:04.413Z,18.30
2023-02-16T11:11:37.129Z,18.41
2023-02-16T11:14:09.043Z,18.24
2023-02-16T11:16:36.146Z,18.17
2023-02-16T11:19:08.671Z,18.27
2023-02-16T11:21:42.960Z,17.80
2023-02-16T11:24:13.350Z,17.57
2023-02-16T11:26:39.967Z,17.88
2023-02-16T11:29:19.638Z,18.18
2023-02-16T11:31:46.627Z,18.08
2023-02-16T11:34:34.676Z,18.12
2023-02-16T11:37:25.933Z,18.09
2023-02-16T11:39:54.591Z,18.16
2023-02-16T11:42:35.700Z,18.30
2023-02-16T11:45:05.084Z,18.30
2023-02-16T11:47:34.457Z,18.50
2023-02-16T11:50:13.308Z,18.12
2023-02-16T11:52:40.030Z,18.05
2023-02-16T11:55:21.887Z,18.08
2023-02-16T11:57:49.005Z,18.08
2023-02-16T12:00:24.456Z,17.90
2023-02-16T12:03:08.958Z,18.16
2023-02-16T12:05:43.295Z,18.04
2023-02-16T12:08:39.342Z,18.27
2023-02-16T12:11:25.555Z,18.49
2023-02-16T12:13:59.341Z,18.39
2023-02-16T12:16:49.450Z,18.57
2023-02-16T12:19:32.857Z,18.59
2023-02-16T12:22:23.845Z,18.42
2023-02-16T12:25:09.857Z,18.33
2023-02-16T12:27:45.676Z,18.41
2023-02-16T12:30:12.427Z,18.14
2023-02-16T12:33:00.964Z,18.22
2023-02-16T12:35:42.346Z,18.16
2023-02-16T12:38:29.561Z,18.03
2023-02-16T12:41:26.309Z,18.17
2023-02-16T12:44:06.993Z,18.06
2023-02-16T12:46:43.845Z,17.95
2023-02-16T12:49:14.057Z,18.04
2023-02-16T12:51:50.284Z,18.03
2023-02-16T12:54:27.519Z,18.19
2023-02-16T12:56:59.845Z,18.40
2023-02-16T12:59:49.257Z,18.40
2023-02-16T13:02:42.419Z,18.60
2023-02-16T13:05:13.484Z,18.38
2023-02-16T13:07:42.957Z,18.51
2023-02-16T13:10:31.541Z,18.53
2023-02-16T13:13:04.707Z,18.51
2023-02-16T13:15:37.045Z,18.82
2023-02-16T13:18:17.870Z,18.37
2023-02-16T13:20:49.411Z,18.05
2023-02-16T13:23:25.073Z,17.97
2023-02-16T13:26:32.126Z,17.88
2023-02-16T13:28:58.873Z,18.06
2023-02-16T13:31:53.500Z,18.19
2023-02-16T13:34:41.214Z,18.54
2023-02-16T13:37:26.177Z,18.45
2023-02-16T13:40:05.032Z,18.36
2023-02-16T13:42:57.384Z,18.29
2023-02-16T13:45:32.202Z,18.31
2023-02-16T13:47:59.467Z,18.45
2023-02-16T13:50:32.773Z,18.70
2023-02-16T13:53:15.895Z,18.56
2023-02-16T13:55:42.500Z,18.17
2023-02-16T13:58:12.394Z,17.95
2023-02-16T14:00:42.215Z,17.83
2023-02-16T14:03:16.447Z,17.86
2023-02-16T14:05:45.700Z,18.10
2023-02-16T14:08:20.684Z,18.08
2023-02-16T14:10:53.786Z,18.21
2023-02-16T14:13:37.659Z,18.45
2023-02-16T14:16:12.420Z,18.36
2023-02-16T14:18:46.250Z,18.45
2023-02-16T14:21:28.417Z,18.51
2023-02-16T14:23:57.420Z,18.49
2023-02-16T14:26:24.457Z,18.50
2023-02-16T14:29:12.538Z,18.76
2023-02-16T14:31:44.388Z,19.01
2023-02-16T14:34:24.922Z,18.68
2023-02-16T14:37:16.868Z,18.54
2023-02-16T14:40:06.550Z,18.54
2023-02-16T14:42:35.650Z,18.56
2023-02-16T14:45:48.494Z,18.68
2023-02-16T14:48:28.925Z,18.67
2023-02-16T14:51:12.844Z,18.86
2023-02-16T14:54:13.710Z,18.63
2023-02-16T14:56:49.930Z,18.69
2023-02-16T14:59:40.471Z,18.57
2023-02-16T15:02:30.127Z,18.83
2023-02-16T15:04:58.107Z,18.94
2023-02-16T15:07:28.017Z,19.08
2023-02-16T15:12:38.997Z,19.11
2023-02-16T15:15:10.085Z,19.16
2023-02-16T15:17:39.084Z,19.14
2023-02-16T15:20:29.238Z,18.84
2023-02-16T15:23:03.542Z,18.95
2023-02-16T15:25:39.162Z,19.16
2023-02-16T15:28:08.752Z,19.29
2023-02-16T15:30:37.735Z,19.53
2023-02-16T15:33:07.345Z,19.69
2023-02-16T15:35:42.592Z,19.47
2023-02-16T15:38:12.652Z,19.46
2023-02-16T15:40:40.254Z,19.65
2023-02-16T15:43:35.876Z,19.63
2023-02-16T15:46:06.959Z,19.40
2023-02-16T15:48:37.527Z,19.49
2023-02-16T15:51:12.212Z,19.33
2023-02-16T15:53:44.667Z,19.34
2023-02-16T15:56:26.554Z,19.72
2023-02-16T15:58:54.912Z,19.72
2023-02-16T16:01:37.191Z,19.59
2023-02-16T16:04:16.793Z,19.29
2023-02-16T16:06:45.476Z,19.28
2023-02-16T16:09:25.920Z,19.34
2023-02-16T16:11:55.754Z,19.04
2023-02-16T16:14:24.315Z,18.74
2023-02-16T16:16:51.447Z,18.85
2023-02-16T16:19:20.126Z,18.93
2023-02-16T16:21:49.626Z,19.13
2023-02-16T16:24:32.423Z,19.23
2023-02-16T16:27:01.118Z,19.09
2023-02-16T16:29:35.693Z,18.87
2023-02-16T16:32:04.095Z,18.91
2023-02-16T16:34:32.419Z,19.14
2023-02-16T16:36:59.629Z,19.23
2023-02-16T16:42:18.999Z,19.41
2023-02-16T16:45:07.950Z,19.68
2023-02-16T16:47:39.431Z,19.49
2023-02-16T16:50:29.038Z,19.55
2023-02-16T16:52:56.032Z,19.78
2023-02-16T16:55:27.465Z,19.86
2023-02-16T16:57:57.036Z,19.54
2023-02-16T17:00:26.854Z,19.78
2023-02-16T17:02:53.862Z,19.74
2023-02-16T17:05:20.874Z,19.38
2023-02-16T17:07:49.972Z,19.70
2023-02-16T17:10:18.339Z,19.89
2023-02-16T17:12:46.517Z,20.02
2023-02-16T17:15:27.527Z,19.90
2023-02-16T17:17:54.509Z,20.09
2023-02-16T17:20:22.294Z,20.17
2023-02-16T17:22:48.902Z,19.91
2023-02-16T17:25:15.693Z,19.84
2023-02-16T17:27:42.530Z,19.83
2023-02-16T17:30:10.935Z,20.05
2023-02-16T17:32:37.602Z,19.86
2023-02-16T17:35:05.517Z,20.01
2023-02-16T17:37:32.988Z,20.03
2023-02-16T17:39:59.707Z,19.92
2023-02-16T17:42:28.134Z,19.92
2023-02-16T17:44:58.031Z,19.94
2023-02-16T17:47:28.043Z,19.96
2023-02-16T17:49:55.106Z,20.02
2023-02-16T17:52:21.650Z,19.94
2023-02-16T17:54:48.412Z,19.99
2023-02-16T17:57:15.140Z,19.57
2023-02-16T17:59:42.137Z,19.76
2023-02-16T18:02:12.024Z,19.65
2023-02-16T18:04:41.054Z,19.58
2023-02-16T18:07:12.228Z,19.65
2023-02-16T18:09:39.113Z,19.68
2023-02-16T18:12:06.072Z,19.79
2023-02-16T18:14:34.749Z,19.81
2023-02-16T18:17:02.426Z,19.80
2023-02-16T18:19:30.287Z,19.95
2023-02-16T18:21:58.185Z,19.98
2023-02-16T18:24:26.072Z,20.09
2023-02-16T18:26:55.811Z,20.12
2023-02-16T18:29:24.313Z,20.03
2023-02-16T18:31:50.927Z,19.89
2023-02-16T18:34:17.519Z,19.63
2023-02-16T18:36:44.356Z,19.64
2023-02-16T18:39:11.370Z,19.34
2023-02-16T18:41:37.988Z,19.29
2023-02-16T18:44:05.055Z,19.22
2023-02-16T18:46:31.642Z,19.09
2023-02-16T18:48:58.315Z,18.90
2023-02-16T18:51:28.791Z,19.06
2023-02-16T18:53:57.691Z,19.31
2023-02-16T18:56:24.625Z,19.36
2023-02-16T19:01:30.633Z,19.06
2023-02-16T19:03:57.425Z,19.03
2023-02-16T19:06:24.216Z,19.05
2023-02-16T19:08:53.609Z,19.27
2023-02-16T19:11:21.062Z,19.63
2023-02-16T19:13:48.453Z,19.70
2023-02-16T19:16:16.284Z,19.52
2023-02-16T19:18:43.217Z,19.59
2023-02-16T19:21:12.968Z,19.49
2023-02-16T19:23:40.034Z,19.42
2023-02-16T19:26:08.490Z,19.59
2023-02-16T19:28:36.299Z,19.28
2023-02-16T19:31:05.178Z,19.31
2023-02-16T19:33:32.386Z,18.91
2023-02-16T19:36:02.861Z,19.10
2023-02-16T19:38:29.863Z,18.87
2023-02-16T19:40:56.428Z,18.78
2023-02-16T19:43:23.958Z,18.78
2023-02-16T19:45:50.976Z,18.41
2023-02-16T19:48:18.613Z,18.45
2023-02-16T19:50:45.480Z,18.36
2023-02-16T19:53:12.048Z,18.38
2023-02-16T19:55:42.256Z,18.31
2023-02-16T19:58:08.870Z,18.36
2023-02-16T20:00:36.431Z,18.38
2023-02-16T20:03:03.200Z,18.36
2023-02-16T20:05:29.782Z,18.53
2023-02-16T20:07:56.446Z,18.69
2023-02-16T20:10:23.053Z,18.81
2023-02-16T20:12:49.641Z,18.59
2023-02-16T20:15:16.201Z,18.67
2023-02-16T20:17:42.866Z,18.78
2023-02-16T20:20:09.717Z,18.58
2023-02-16T20:22:36.333Z,18.49
2023-02-16T20:25:03.396Z,18.32
2023-02-16T20:27:30.193Z,18.12
2023-02-16T20:29:56.917Z,18.15
2023-02-16T20:32:25.602Z,18.02
2023-02-16T20:34:52.174Z,18.30
2023-02-16T20:37:18.816Z,18.13
2023-02-16T20:39:46.033Z,18.17
2023-02-16T20:42:12.577Z,18.28
2023-02-16T20:44:39.424Z,18.27
2023-02-16T20:47:08.001Z,18.23
2023-02-16T20:49:35.170Z,18.29
2023-02-16T20:52:02.125Z,18.43
2023-02-16T20:54:28.927Z,18.43
2023-02-16T20:56:55.504Z,18.03
2023-02-16T20:59:22.020Z,18.12
2023-02-16T21:01:51.204Z,18.14
2023-02-16T21:04:19.504Z,18.10
2023-02-16T21:06:46.219Z,18.08
2023-02-16T21:09:14.377Z,18.10
2023-02-16T21:11:42.271Z,17.99
2023-02-16T21:14:11.555Z,18.03
2023-02-16T21:16:40.783Z,18.11
2023-02-16T21:19:20.999Z,18.07
2023-02-16T21:21:49.643Z,17.91
2023-02-16T21:24:16.201Z,17.87
2023-02-16T21:26:42.860Z,17.84
2023-02-16T21:29:09.570Z,17.90
2023-02-16T21:31:36.479Z,17.90
2023-02-16T21:34:03.931Z,18.07
2023-02-16T21:36:30.597Z,18.13
2023-02-16T21:38:57.155Z,18.20
2023-02-16T21:41:27.459Z,18.21
2023-02-16T21:44:06.837Z,18.42
2023-02-16T21:46:39.682Z,18.25
2023-02-16T21:49:08.629Z,18.07
2023-02-16T21:51:37.342Z,18.30
2023-02-16T21:54:09.408Z,18.13
2023-02-16T21:56:40.314Z,18.02
2023-02-16T21:59:12.947Z,17.93
2023-02-16T22:01:43.021Z,17.97
2023-02-16T22:04:15.940Z,17.92
2023-02-16T22:06:47.273Z,18.06
2023-02-16T22:09:17.460Z,18.16
2023-02-16T22:11:45.415Z,18.20
2023-02-16T22:14:12.421Z,18.09
2023-02-16T22:16:40.825Z,18.13
2023-02-16T22:19:16.419Z,18.08
2023-02-16T22:21:44.861Z,18.36
2023-02-16T22:24:13.945Z,18.27
2023-02-16T22:26:40.918Z,18.05
2023-02-16T22:29:08.849Z,17.96
2023-02-16T22:31:35.938Z,17.90
2023-02-16T22:34:06.389Z,17.94
2023-02-16T22:36:33.519Z,18.09
2023-02-16T22:39:00.075Z,18.10
2023-02-16T22:41:26.928Z,18.30
2023-02-16T22:43:54.936Z,18.21
2023-02-16T22:46:23.824Z,18.17
2023-02-16T22:48:50.754Z,18.23
2023-02-16T22:51:18.308Z,18.17
2023-02-16T22:53:45.169Z,18.30
2023-02-16T22:56:14.656Z,18.15
2023-02-16T22:58:41.413Z,18.28
2023-02-16T23:01:13.176Z,18.41
2023-02-16T23:03:40.641Z,18.47
2023-02-16T23:06:15.851Z,18.84
2023-02-16T23:08:44.069Z,18.94
2023-02-16T23:11:11.902Z,18.93
2023-02-16T23:13:38.759Z,18.45
2023-02-16T23:16:08.331Z,18.47
2023-02-16T23:18:35.317Z,18.40
2023-02-16T23:21:17.525Z,18.37
2023-02-16T23:23:45.619Z,18.12
2023-02-16T23:26:12.349Z,18.07
2023-02-16T23:28:40.978Z,18.16
2023-02-16T23:31:08.076Z,18.27
2023-02-16T23:33:34.980Z,18.27
2023-02-16T23:36:01.851Z,18.21
2023-02-16T23:38:28.500Z,18.35
2023-02-16T23:41:08.635Z,18.23
2023-02-16T23:43:35.778Z,18.19
2023-02-16T23:46:03.642Z,18.19
2023-02-16T23:48:30.986Z,18.23
2023-02-16T23:50:58.159Z,18.19
2023-02-16T23:53:27.216Z,18.24
2023-02-16T23:56:02.452Z,18.36
2023-02-16T23:58:31.169Z,18.20
